createdAt,value
2024-03-26T00:00:02.051Z,0.00
2024-03-26T00:01:02.069Z,0.00
2024-03-26T00:02:03.048Z,0.00
2024-03-26T00:03:02.027Z,0.00
2024-03-26T00:04:02.019Z,0.00
2024-03-26T00:05:01.994Z,0.00
2024-03-26T00:06:02.998Z,0.00
2024-03-26T00:07:02.028Z,0.00
2024-03-26T00:08:01.945Z,0.00
2024-03-26T00:09:01.949Z,0.00
2024-03-26T00:10:01.943Z,0.00
2024-03-26T00:11:01.996Z,0.00
2024-03-26T00:12:01.954Z,0.00
2024-03-26T00:13:01.950Z,0.00
2024-03-26T00:14:01.923Z,0.00
2024-03-26T00:15:01.945Z,0.00
2024-03-26T00:16:01.927Z,0.00
2024-03-26T00:17:01.935Z,0.00
2024-03-26T00:18:01.860Z,0.00
2024-03-26T00:19:01.864Z,0.00
2024-03-26T00:20:01.868Z,0.00
2024-03-26T00:21:01.824Z,0.00
2024-03-26T00:22:01.872Z,0.00
2024-03-26T00:23:01.825Z,0.00
2024-03-26T00:24:01.832Z,0.00
2024-03-26T00:25:01.771Z,0.00
2024-03-26T00:26:01.778Z,0.00
2024-03-26T00:27:01.759Z,0.00
2024-03-26T00:28:01.755Z,0.00
2024-03-26T00:29:01.747Z,0.00
2024-03-26T00:30:01.746Z,0.00
2024-03-26T00:31:01.715Z,0.00
2024-03-26T00:32:01.695Z,0.00
2024-03-26T00:33:01.736Z,0.00
2024-03-26T00:34:01.720Z,0.00
2024-03-26T00:35:01.697Z,0.00
2024-03-26T00:36:01.697Z,0.00
2024-03-26T00:37:01.687Z,0.00
2024-03-26T00:38:01.655Z,0.00
2024-03-26T00:39:01.618Z,0.00
2024-03-26T00:40:01.644Z,0.00
2024-03-26T00:41:01.611Z,0.00
2024-03-26T00:42:01.641Z,0.00
2024-03-26T00:43:01.602Z,0.00
2024-03-26T00:44:01.587Z,0.00
2024-03-26T00:45:01.548Z,0.00
2024-03-26T00:46:02.572Z,0.00
2024-03-26T00:47:01.567Z,0.00
2024-03-26T00:48:02.422Z,0.00
2024-03-26T00:49:01.520Z,0.00
2024-03-26T00:50:01.545Z,0.00
2024-03-26T00:51:01.514Z,0.00
2024-03-26T00:52:01.485Z,0.00
2024-03-26T00:53:01.501Z,0.00
2024-03-26T00:54:01.492Z,0.00
2024-03-26T00:55:01.507Z,0.00
2024-03-26T00:56:02.083Z,0.00
2024-03-26T00:57:01.444Z,0.00
2024-03-26T00:58:01.407Z,0.00
2024-03-26T00:59:01.492Z,0.00
2024-03-26T01:00:01.412Z,0.00
2024-03-26T01:01:01.404Z,0.00
2024-03-26T01:02:01.398Z,0.00
2024-03-26T01:03:01.417Z,0.00
2024-03-26T01:04:01.514Z,0.00
2024-03-26T01:05:01.390Z,0.00
2024-03-26T01:06:01.351Z,0.00
2024-03-26T01:07:01.342Z,0.00
2024-03-26T01:08:01.343Z,0.00
2024-03-26T01:09:01.358Z,0.00
2024-03-26T01:10:01.328Z,0.00
2024-03-26T01:11:01.325Z,0.00
2024-03-26T01:12:01.364Z,0.00
2024-03-26T01:13:01.313Z,0.00
2024-03-26T01:14:01.358Z,0.00
2024-03-26T01:15:01.247Z,0.00
2024-03-26T01:16:01.299Z,0.00
2024-03-26T01:17:01.215Z,0.00
2024-03-26T01:18:01.223Z,0.00
2024-03-26T01:19:01.413Z,0.00
2024-03-26T01:20:01.234Z,0.00
2024-03-26T01:21:01.187Z,0.00
2024-03-26T01:22:01.237Z,0.00
2024-03-26T01:23:01.204Z,0.00
2024-03-26T01:24:01.185Z,0.00
2024-03-26T01:25:01.162Z,0.00
2024-03-26T01:26:01.171Z,0.00
2024-03-26T01:27:01.194Z,0.00
2024-03-26T01:28:01.089Z,0.00
2024-03-26T01:29:01.128Z,0.00
2024-03-26T01:30:01.555Z,0.00
2024-03-26T01:31:01.992Z,0.00
2024-03-26T01:32:02.082Z,0.00
2024-03-26T01:33:01.061Z,0.00
2024-03-26T01:34:01.172Z,0.00
2024-03-26T01:35:01.050Z,0.00
2024-03-26T01:36:01.059Z,0.00
2024-03-26T01:37:01.051Z,0.00
2024-03-26T01:38:01.016Z,0.00
2024-03-26T01:39:01.056Z,0.00
2024-03-26T01:40:01.097Z,0.00
2024-03-26T01:41:01.035Z,0.00
2024-03-26T01:42:01.043Z,0.00
2024-03-26T01:43:01.034Z,0.00
2024-03-26T01:44:01.000Z,0.00
2024-03-26T01:45:01.009Z,0.00
2024-03-26T01:46:00.948Z,0.00
2024-03-26T01:47:00.934Z,0.00
2024-03-26T01:48:00.938Z,0.00
2024-03-26T01:49:00.918Z,0.00
2024-03-26T01:50:00.925Z,0.00
2024-03-26T01:51:00.874Z,0.00
2024-03-26T01:52:00.878Z,0.00
2024-03-26T01:53:00.859Z,0.00
2024-03-26T01:54:00.849Z,0.00
2024-03-26T01:55:00.831Z,0.00
2024-03-26T01:56:00.806Z,0.00
2024-03-26T01:57:00.824Z,0.00
2024-03-26T01:58:00.820Z,0.00
2024-03-26T01:59:00.833Z,0.00
2024-03-26T02:00:00.848Z,0.00
2024-03-26T02:01:00.741Z,0.00
2024-03-26T02:02:01.820Z,0.00
2024-03-26T02:03:00.922Z,0.00
2024-03-26T02:04:00.784Z,0.00
2024-03-26T02:05:00.769Z,0.00
2024-03-26T02:06:00.716Z,0.00
2024-03-26T02:07:00.705Z,0.00
2024-03-26T02:08:00.685Z,0.00
2024-03-26T02:09:00.714Z,0.00
2024-03-26T02:10:00.717Z,0.00
2024-03-26T02:11:00.655Z,0.00
2024-03-26T02:12:00.670Z,0.00
2024-03-26T02:13:00.660Z,0.00
2024-03-26T02:14:00.622Z,0.00
2024-03-26T02:15:00.607Z,0.00
2024-03-26T02:16:00.660Z,0.00
2024-03-26T02:17:00.604Z,0.00
2024-03-26T02:18:00.589Z,0.00
2024-03-26T02:19:00.593Z,0.00
2024-03-26T02:20:00.545Z,0.00
2024-03-26T02:21:00.563Z,0.00
2024-03-26T02:22:00.562Z,0.00
2024-03-26T02:23:00.525Z,0.00
2024-03-26T02:24:00.512Z,0.00
2024-03-26T02:25:00.525Z,0.00
2024-03-26T02:26:00.519Z,0.00
2024-03-26T02:27:00.521Z,0.00
2024-03-26T02:28:00.490Z,0.00
2024-03-26T02:29:00.456Z,0.00
2024-03-26T02:30:00.461Z,0.00
2024-03-26T02:31:00.506Z,0.00
2024-03-26T02:32:00.443Z,0.00
2024-03-26T02:33:01.419Z,0.00
2024-03-26T02:34:00.413Z,0.00
2024-03-26T02:35:00.412Z,0.00
2024-03-26T02:36:00.430Z,0.00
2024-03-26T02:37:00.405Z,0.00
2024-03-26T02:38:00.389Z,0.00
2024-03-26T02:39:00.412Z,0.00
2024-03-26T02:40:00.447Z,0.00
2024-03-26T02:41:00.375Z,0.00
2024-03-26T02:42:00.309Z,0.00
2024-03-26T02:43:00.343Z,0.00
2024-03-26T02:44:00.311Z,0.00
2024-03-26T02:45:00.299Z,0.00
2024-03-26T02:46:00.289Z,0.00
2024-03-26T02:47:00.288Z,0.00
2024-03-26T02:48:00.243Z,0.00
2024-03-26T02:49:01.235Z,0.00
2024-03-26T02:50:00.240Z,0.00
2024-03-26T02:51:00.211Z,0.00
2024-03-26T02:52:00.245Z,0.00
2024-03-26T02:53:00.427Z,0.00
2024-03-26T02:54:00.179Z,0.00
2024-03-26T02:55:00.206Z,0.00
2024-03-26T02:56:00.170Z,0.00
2024-03-26T02:57:00.159Z,0.00
2024-03-26T02:58:00.196Z,0.00
2024-03-26T02:59:00.156Z,0.00
2024-03-26T03:00:00.160Z,0.00
2024-03-26T03:01:00.145Z,0.00
2024-03-26T03:02:00.150Z,0.00
2024-03-26T03:03:00.103Z,0.00
2024-03-26T03:04:00.111Z,0.00
2024-03-26T03:05:00.085Z,0.00
2024-03-26T03:06:00.094Z,0.00
2024-03-26T03:07:00.072Z,0.00
2024-03-26T03:08:00.068Z,0.00
2024-03-26T03:09:00.087Z,0.00
2024-03-26T03:10:00.029Z,0.00
2024-03-26T03:10:59.996Z,0.00
2024-03-26T03:11:59.995Z,0.00
2024-03-26T03:12:59.979Z,0.00
2024-03-26T03:14:00.137Z,0.00
2024-03-26T03:14:59.980Z,0.00
2024-03-26T03:15:59.971Z,0.00
2024-03-26T03:16:59.956Z,0.00
2024-03-26T03:17:59.939Z,0.00
2024-03-26T03:19:00.210Z,0.00
2024-03-26T03:19:59.925Z,0.00
2024-03-26T03:20:59.882Z,0.00
2024-03-26T03:21:59.896Z,0.00
2024-03-26T03:22:59.889Z,0.00
2024-03-26T03:23:59.920Z,0.00
2024-03-26T03:24:59.889Z,0.00
2024-03-26T03:26:00.984Z,0.00
2024-03-26T03:26:59.842Z,0.00
2024-03-26T03:27:59.862Z,0.00
2024-03-26T03:28:59.808Z,0.00
2024-03-26T03:29:59.830Z,0.00
2024-03-26T03:30:59.802Z,0.00
2024-03-26T03:31:59.804Z,0.00
2024-03-26T03:32:59.800Z,0.00
2024-03-26T03:33:59.763Z,0.00
2024-03-26T03:34:59.774Z,0.00
2024-03-26T03:35:59.734Z,0.00
2024-03-26T03:36:59.752Z,0.00
2024-03-26T03:37:59.734Z,0.00
2024-03-26T03:38:59.751Z,0.00
2024-03-26T03:39:59.768Z,0.00
2024-03-26T03:40:59.706Z,0.00
2024-03-26T03:41:59.677Z,0.00
2024-03-26T03:42:59.677Z,0.00
2024-03-26T03:43:59.656Z,0.00
2024-03-26T03:44:59.918Z,0.00
2024-03-26T03:45:59.652Z,0.00
2024-03-26T03:46:59.641Z,0.00
2024-03-26T03:47:59.620Z,0.00
2024-03-26T03:48:59.646Z,0.00
2024-03-26T03:49:59.601Z,0.00
2024-03-26T03:51:01.072Z,0.00
2024-03-26T03:51:59.597Z,0.00
2024-03-26T03:53:00.454Z,0.00
2024-03-26T03:53:59.566Z,0.00
2024-03-26T03:54:59.576Z,0.00
2024-03-26T03:55:59.567Z,0.00
2024-03-26T03:56:59.606Z,0.00
2024-03-26T03:57:59.527Z,0.00
2024-03-26T03:58:59.515Z,0.00
2024-03-26T03:59:59.485Z,0.00
2024-03-26T04:00:59.521Z,0.00
2024-03-26T04:01:59.498Z,0.00
2024-03-26T04:02:59.496Z,0.00
2024-03-26T04:03:59.444Z,0.00
2024-03-26T04:04:59.434Z,0.00
2024-03-26T04:05:59.414Z,0.00
2024-03-26T04:06:59.451Z,0.00
2024-03-26T04:07:59.397Z,0.00
2024-03-26T04:08:59.466Z,0.00
2024-03-26T04:09:59.422Z,0.00
2024-03-26T04:10:59.373Z,0.00
2024-03-26T04:11:59.385Z,0.00
2024-03-26T04:12:59.358Z,0.00
2024-03-26T04:13:59.365Z,0.00
2024-03-26T04:14:59.350Z,0.00
2024-03-26T04:15:59.354Z,0.00
2024-03-26T04:16:59.365Z,0.00
2024-03-26T04:17:59.333Z,0.00
2024-03-26T04:18:59.351Z,0.00
2024-03-26T04:19:59.302Z,0.00
2024-03-26T04:20:59.266Z,0.00
2024-03-26T04:21:59.296Z,0.00
2024-03-26T04:23:00.311Z,0.00
2024-03-26T04:23:59.276Z,0.00
2024-03-26T04:24:59.269Z,0.00
2024-03-26T04:25:59.223Z,0.00
2024-03-26T04:26:59.221Z,0.00
2024-03-26T04:27:59.246Z,0.00
2024-03-26T04:28:59.200Z,0.00
2024-03-26T04:29:59.198Z,0.00
2024-03-26T04:30:59.174Z,0.00
2024-03-26T04:31:59.203Z,0.00
2024-03-26T04:32:59.203Z,0.00
2024-03-26T04:33:59.154Z,0.00
2024-03-26T04:34:59.142Z,0.00
2024-03-26T04:35:59.134Z,4.00
2024-03-26T04:36:59.139Z,0.00
2024-03-26T04:37:59.159Z,0.00
2024-03-26T04:38:59.092Z,0.00
2024-03-26T04:39:59.112Z,4.00
2024-03-26T04:40:59.065Z,0.00
2024-03-26T04:41:59.056Z,4.00
2024-03-26T04:42:59.099Z,4.00
2024-03-26T04:43:59.043Z,4.00
2024-03-26T04:44:59.072Z,0.00
2024-03-26T04:45:59.024Z,4.00
2024-03-26T04:46:59.087Z,8.00
2024-03-26T04:47:59.014Z,4.00
2024-03-26T04:48:59.020Z,4.00
2024-03-26T04:49:59.015Z,8.00
2024-03-26T04:50:58.979Z,12.00
2024-03-26T04:51:59.930Z,12.00
2024-03-26T04:52:58.944Z,16.00
2024-03-26T04:53:58.955Z,16.00
2024-03-26T04:54:58.919Z,20.00
2024-03-26T04:55:58.925Z,28.00
2024-03-26T04:56:58.985Z,32.00
2024-03-26T04:57:58.888Z,36.00
2024-03-26T04:58:58.895Z,44.00
2024-03-26T04:59:58.868Z,48.00
2024-03-26T05:00:58.897Z,60.00
2024-03-26T05:01:58.869Z,68.00
2024-03-26T05:02:58.879Z,76.00
2024-03-26T05:03:58.888Z,92.00
2024-03-26T05:04:58.825Z,100.00
2024-03-26T05:05:58.794Z,112.00
2024-03-26T05:06:58.817Z,128.00
2024-03-26T05:07:58.789Z,148.00
2024-03-26T05:08:58.957Z,164.00
2024-03-26T05:09:58.800Z,188.00
2024-03-26T05:10:58.769Z,208.00
2024-03-26T05:11:58.776Z,224.00
2024-03-26T05:12:58.754Z,248.00
2024-03-26T05:13:58.734Z,268.00
2024-03-26T05:14:58.753Z,292.00
2024-03-26T05:15:58.740Z,316.00
2024-03-26T05:16:58.714Z,340.00
2024-03-26T05:17:59.165Z,368.00
2024-03-26T05:18:58.680Z,396.00
2024-03-26T05:19:58.683Z,428.00
2024-03-26T05:20:58.668Z,464.00
2024-03-26T05:21:58.703Z,500.00
2024-03-26T05:22:59.520Z,536.00
2024-03-26T05:23:58.638Z,576.00
2024-03-26T05:24:58.652Z,612.00
2024-03-26T05:25:58.602Z,656.00
2024-03-26T05:26:58.616Z,704.00
2024-03-26T05:27:58.569Z,752.00
2024-03-26T05:28:58.578Z,800.00
2024-03-26T05:29:58.594Z,864.00
2024-03-26T05:30:58.546Z,924.00
2024-03-26T05:31:58.525Z,992.00
2024-03-26T05:32:58.534Z,1068.00
2024-03-26T05:33:58.534Z,1140.00
2024-03-26T05:34:58.558Z,1216.00
2024-03-26T05:35:58.504Z,1292.00
2024-03-26T05:36:58.486Z,1368.00
2024-03-26T05:37:58.498Z,1440.00
2024-03-26T05:38:58.458Z,1528.00
2024-03-26T05:39:58.453Z,1644.00
2024-03-26T05:40:58.470Z,1788.00
2024-03-26T05:41:58.455Z,1892.00
2024-03-26T05:42:58.443Z,1932.00
2024-03-26T05:43:58.403Z,1984.00
2024-03-26T05:44:58.397Z,2076.00
2024-03-26T05:45:58.399Z,2184.00
2024-03-26T05:46:58.383Z,2316.00
2024-03-26T05:47:58.351Z,2464.00
2024-03-26T05:48:58.363Z,2628.00
2024-03-26T05:49:58.347Z,2796.00
2024-03-26T05:50:59.385Z,2972.00
2024-03-26T05:51:58.356Z,3160.00
2024-03-26T05:52:58.366Z,3356.00
2024-03-26T05:53:58.312Z,3552.00
2024-03-26T05:54:58.306Z,3760.00
2024-03-26T05:55:58.283Z,3972.00
2024-03-26T05:56:58.301Z,4180.00
2024-03-26T05:57:58.274Z,4396.00
2024-03-26T05:58:58.927Z,4636.00
2024-03-26T05:59:58.242Z,4888.00
2024-03-26T06:00:58.235Z,5160.00
2024-03-26T06:01:58.219Z,5708.00
2024-03-26T06:02:58.241Z,6720.00
2024-03-26T06:03:59.788Z,7100.00
2024-03-26T06:04:59.179Z,7476.00
2024-03-26T06:05:58.188Z,8192.00
2024-03-26T06:06:58.199Z,8692.00
2024-03-26T06:07:58.155Z,9728.00
2024-03-26T06:08:58.134Z,10080.00
2024-03-26T06:09:58.146Z,10812.00
2024-03-26T06:10:58.106Z,12012.00
2024-03-26T06:11:58.148Z,10432.00
2024-03-26T06:12:58.088Z,8864.00
2024-03-26T06:13:58.110Z,9076.00
2024-03-26T06:14:58.103Z,9044.00
2024-03-26T06:15:58.044Z,8788.00
2024-03-26T06:16:58.158Z,8944.00
2024-03-26T06:17:58.069Z,10132.00
2024-03-26T06:18:58.008Z,11480.00
2024-03-26T06:19:58.019Z,11820.00
2024-03-26T06:20:58.016Z,11972.00
2024-03-26T06:21:58.007Z,10928.00
2024-03-26T06:22:58.042Z,12040.00
2024-03-26T06:23:57.988Z,11616.00
2024-03-26T06:24:57.954Z,12816.00
2024-03-26T06:25:57.957Z,11636.00
2024-03-26T06:26:57.943Z,11784.00
2024-03-26T06:27:57.979Z,13104.00
2024-03-26T06:28:57.942Z,12200.00
2024-03-26T06:29:57.917Z,11984.00
2024-03-26T06:30:57.894Z,12204.00
2024-03-26T06:31:57.901Z,12804.00
2024-03-26T06:32:57.929Z,15712.00
2024-03-26T06:33:57.934Z,15040.00
2024-03-26T06:34:57.868Z,15616.00
2024-03-26T06:35:57.858Z,17056.00
2024-03-26T06:36:57.831Z,16832.00
2024-03-26T06:37:57.844Z,17248.00
2024-03-26T06:38:57.850Z,15872.00
2024-03-26T06:39:57.847Z,15392.00
2024-03-26T06:40:58.282Z,13744.00
2024-03-26T06:41:58.795Z,14356.00
2024-03-26T06:42:57.807Z,14544.00
2024-03-26T06:43:57.799Z,14360.00
2024-03-26T06:44:57.785Z,14012.00
2024-03-26T06:45:57.816Z,14848.00
2024-03-26T06:46:57.752Z,19264.00
2024-03-26T06:47:57.710Z,21056.00
2024-03-26T06:48:57.696Z,27552.00
2024-03-26T06:49:57.782Z,31680.00
2024-03-26T06:50:57.721Z,33152.00
2024-03-26T06:51:57.699Z,36768.00
2024-03-26T06:52:57.654Z,42560.00
2024-03-26T06:53:57.670Z,47712.00
2024-03-26T06:54:57.645Z,51392.00
2024-03-26T06:55:57.624Z,53152.00
2024-03-26T06:56:57.664Z,51616.00
2024-03-26T06:57:57.626Z,53024.00
2024-03-26T06:58:57.659Z,52128.00
2024-03-26T06:59:57.655Z,52672.00
2024-03-26T07:00:57.582Z,55616.00
2024-03-26T07:01:58.414Z,49344.00
2024-03-26T07:02:57.580Z,45664.00
2024-03-26T07:03:57.567Z,42880.00
2024-03-26T07:04:57.525Z,36480.00
2024-03-26T07:05:57.784Z,26656.00
2024-03-26T07:06:57.498Z,20512.00
2024-03-26T07:07:57.522Z,18016.00
2024-03-26T07:08:57.565Z,22080.00
2024-03-26T07:09:57.511Z,25056.00
2024-03-26T07:10:57.530Z,24832.00
2024-03-26T07:11:57.526Z,21792.00
2024-03-26T07:12:58.997Z,23776.00
2024-03-26T07:13:58.446Z,23744.00
2024-03-26T07:14:57.470Z,25472.00
2024-03-26T07:15:57.475Z,25472.00
2024-03-26T07:16:57.412Z,35424.00
2024-03-26T07:17:57.981Z,37440.00
2024-03-26T07:18:57.386Z,35200.00
2024-03-26T07:19:57.367Z,34624.00
2024-03-26T07:20:57.465Z,39520.00
2024-03-26T07:21:57.363Z,32320.00
2024-03-26T07:22:57.317Z,32064.00
2024-03-26T07:23:57.468Z,32512.00
2024-03-26T07:24:57.324Z,32704.00
2024-03-26T07:25:57.332Z,34080.00
2024-03-26T07:26:57.336Z,36096.00
2024-03-26T07:27:57.311Z,29504.00
2024-03-26T07:28:57.279Z,31616.00
2024-03-26T07:29:57.339Z,27776.00
2024-03-26T07:30:57.250Z,28960.00
2024-03-26T07:31:57.247Z,26720.00
2024-03-26T07:32:57.313Z,26368.00
2024-03-26T07:33:57.208Z,26560.00
2024-03-26T07:34:57.266Z,27456.00
2024-03-26T07:35:57.251Z,29152.00
2024-03-26T07:36:57.232Z,32896.00
2024-03-26T07:37:57.265Z,36480.00
2024-03-26T07:38:57.171Z,28512.00
2024-03-26T07:39:57.240Z,25824.00
2024-03-26T07:40:57.198Z,30976.00
2024-03-26T07:41:57.242Z,29152.00
2024-03-26T07:42:58.438Z,30816.00
2024-03-26T07:43:57.186Z,31328.00
2024-03-26T07:44:57.120Z,29568.00
2024-03-26T07:45:57.203Z,27552.00
2024-03-26T07:46:57.095Z,27872.00
2024-03-26T07:47:57.142Z,28320.00
2024-03-26T07:48:57.120Z,31296.00
2024-03-26T07:49:57.156Z,36160.00
2024-03-26T07:50:57.125Z,38144.00
2024-03-26T07:51:57.578Z,30816.00
2024-03-26T07:52:58.068Z,34944.00
2024-03-26T07:53:57.119Z,25472.00
2024-03-26T07:54:57.055Z,31200.00
2024-03-26T07:55:57.006Z,37408.00
2024-03-26T07:56:57.077Z,35584.00
2024-03-26T07:57:56.981Z,29888.00
2024-03-26T07:58:57.005Z,26944.00
2024-03-26T07:59:57.018Z,29376.00
2024-03-26T08:00:56.918Z,37760.00
2024-03-26T08:01:56.957Z,26304.00
2024-03-26T08:02:56.921Z,27072.00
2024-03-26T08:03:56.932Z,28800.00
2024-03-26T08:04:56.890Z,30816.00
2024-03-26T08:05:56.900Z,42912.00
2024-03-26T08:06:56.859Z,27328.00
2024-03-26T08:07:56.898Z,25792.00
2024-03-26T08:08:56.873Z,25408.00
2024-03-26T08:09:56.822Z,27264.00
2024-03-26T08:10:56.817Z,26976.00
2024-03-26T08:11:56.827Z,32192.00
2024-03-26T08:12:56.869Z,47744.00
2024-03-26T08:13:56.822Z,37952.00
2024-03-26T08:14:56.828Z,33600.00
2024-03-26T08:15:56.850Z,36768.00
2024-03-26T08:16:56.768Z,29536.00
2024-03-26T08:17:58.195Z,28768.00
2024-03-26T08:18:56.802Z,28192.00
2024-03-26T08:19:56.758Z,26176.00
2024-03-26T08:20:56.725Z,24832.00
2024-03-26T08:21:56.728Z,24192.00
2024-03-26T08:22:56.714Z,24576.00
2024-03-26T08:23:57.062Z,27520.00
2024-03-26T08:24:58.656Z,23200.00
2024-03-26T08:25:56.720Z,21344.00
2024-03-26T08:26:56.848Z,20160.00
2024-03-26T08:27:56.707Z,19584.00
2024-03-26T08:28:56.634Z,19072.00
2024-03-26T08:29:56.721Z,18816.00
2024-03-26T08:30:56.855Z,18784.00
2024-03-26T08:31:56.674Z,18848.00
2024-03-26T08:32:56.614Z,18560.00
2024-03-26T08:33:56.597Z,18720.00
2024-03-26T08:34:56.549Z,19456.00
2024-03-26T08:35:56.584Z,19584.00
2024-03-26T08:36:56.518Z,19776.00
2024-03-26T08:37:56.570Z,18528.00
2024-03-26T08:38:56.574Z,17632.00
2024-03-26T08:39:56.498Z,16864.00
2024-03-26T08:40:57.392Z,16608.00
2024-03-26T08:41:56.528Z,16576.00
2024-03-26T08:42:56.461Z,17120.00
2024-03-26T08:43:56.432Z,17024.00
2024-03-26T08:44:56.578Z,16672.00
2024-03-26T08:45:56.467Z,16800.00
2024-03-26T08:46:56.438Z,17184.00
2024-03-26T08:47:56.451Z,17728.00
2024-03-26T08:48:56.401Z,17632.00
2024-03-26T08:49:56.394Z,17952.00
2024-03-26T08:50:56.437Z,17952.00
2024-03-26T08:51:56.368Z,18944.00
2024-03-26T08:52:56.366Z,19232.00
2024-03-26T08:53:56.372Z,22432.00
2024-03-26T08:54:56.342Z,19392.00
2024-03-26T08:56:00.355Z,16832.00
2024-03-26T08:56:57.341Z,15360.00
2024-03-26T08:57:56.319Z,14744.00
2024-03-26T08:58:56.306Z,14416.00
2024-03-26T08:59:56.325Z,14276.00
2024-03-26T09:00:56.325Z,14364.00
2024-03-26T09:01:56.269Z,14584.00
2024-03-26T09:02:56.300Z,14772.00
2024-03-26T09:03:56.253Z,16032.00
2024-03-26T09:04:56.236Z,14688.00
2024-03-26T09:05:56.233Z,14288.00
2024-03-26T09:06:56.210Z,14376.00
2024-03-26T09:07:56.195Z,14652.00
2024-03-26T09:08:56.179Z,16032.00
2024-03-26T09:09:56.216Z,14528.00
2024-03-26T09:10:56.157Z,13988.00
2024-03-26T09:11:56.166Z,13668.00
2024-03-26T09:12:56.140Z,13616.00
2024-03-26T09:13:56.171Z,13568.00
2024-03-26T09:14:56.211Z,13440.00
2024-03-26T09:15:56.151Z,13480.00
2024-03-26T09:16:56.106Z,13584.00
2024-03-26T09:17:56.159Z,14184.00
2024-03-26T09:19:00.389Z,14732.00
2024-03-26T09:19:58.106Z,14372.00
2024-03-26T09:20:56.096Z,13764.00
2024-03-26T09:21:56.113Z,13632.00
2024-03-26T09:22:56.041Z,13468.00
2024-03-26T09:23:56.042Z,13324.00
2024-03-26T09:24:56.044Z,13248.00
2024-03-26T09:25:56.003Z,13112.00
2024-03-26T09:26:56.083Z,13012.00
2024-03-26T09:27:56.007Z,12796.00
2024-03-26T09:28:55.987Z,12544.00
2024-03-26T09:29:55.965Z,12352.00
2024-03-26T09:30:55.980Z,12188.00
2024-03-26T09:31:55.953Z,12104.00
2024-03-26T09:32:55.983Z,12156.00
2024-03-26T09:33:55.935Z,12372.00
2024-03-26T09:34:55.927Z,12736.00
2024-03-26T09:35:55.930Z,13116.00
2024-03-26T09:36:55.972Z,13516.00
2024-03-26T09:37:55.912Z,13924.00
2024-03-26T09:39:06.561Z,13664.00
2024-03-26T09:39:56.872Z,13372.00
2024-03-26T09:40:55.866Z,13148.00
2024-03-26T09:41:55.905Z,13008.00
2024-03-26T09:42:55.824Z,12808.00
2024-03-26T09:43:55.853Z,12748.00
2024-03-26T09:45:05.204Z,12736.00
2024-03-26T09:45:56.810Z,12780.00
2024-03-26T09:46:55.793Z,12880.00
2024-03-26T09:47:55.850Z,12968.00
2024-03-26T09:48:55.790Z,13040.00
2024-03-26T09:49:55.768Z,13040.00
2024-03-26T09:50:55.890Z,12996.00
2024-03-26T09:51:55.744Z,12836.00
2024-03-26T09:52:55.741Z,12560.00
2024-03-26T09:53:55.749Z,12220.00
2024-03-26T09:54:55.719Z,11868.00
2024-03-26T09:55:55.720Z,11512.00
2024-03-26T09:56:55.691Z,11260.00
2024-03-26T09:57:55.747Z,11060.00
2024-03-26T09:58:55.674Z,10960.00
2024-03-26T09:59:55.669Z,10880.00
2024-03-26T10:00:55.686Z,10860.00
2024-03-26T10:01:55.663Z,10892.00
2024-03-26T10:02:55.661Z,10976.00
2024-03-26T10:03:55.639Z,11140.00
2024-03-26T10:04:55.619Z,11340.00
2024-03-26T10:05:55.615Z,11588.00
2024-03-26T10:06:55.591Z,11868.00
2024-03-26T10:07:55.588Z,12156.00
2024-03-26T10:08:55.607Z,12460.00
2024-03-26T10:09:55.571Z,12824.00
2024-03-26T10:10:55.559Z,13184.00
2024-03-26T10:11:55.575Z,13656.00
2024-03-26T10:12:55.540Z,14036.00
2024-03-26T10:13:55.532Z,14464.00
2024-03-26T10:14:55.534Z,14500.00
2024-03-26T10:15:55.552Z,14796.00
2024-03-26T10:16:55.498Z,14648.00
2024-03-26T10:17:55.498Z,14488.00
2024-03-26T10:18:55.476Z,14400.00
2024-03-26T10:19:55.446Z,14204.00
2024-03-26T10:20:55.677Z,14012.00
2024-03-26T10:21:55.465Z,13984.00
2024-03-26T10:22:55.426Z,13984.00
2024-03-26T10:23:55.423Z,14000.00
2024-03-26T10:24:55.414Z,14008.00
2024-03-26T10:25:55.403Z,13944.00
2024-03-26T10:26:55.403Z,14028.00
2024-03-26T10:27:55.464Z,14364.00
2024-03-26T10:28:55.371Z,14668.00
2024-03-26T10:29:55.344Z,15028.00
2024-03-26T10:30:55.350Z,15172.00
2024-03-26T10:31:55.352Z,15384.00
2024-03-26T10:32:55.342Z,15456.00
2024-03-26T10:33:55.354Z,15588.00
2024-03-26T10:34:55.324Z,16032.00
2024-03-26T10:35:55.291Z,16672.00
2024-03-26T10:36:55.312Z,17920.00
2024-03-26T10:38:01.466Z,19232.00
2024-03-26T10:39:02.879Z,19744.00
2024-03-26T10:39:57.308Z,19904.00
2024-03-26T10:40:58.415Z,20192.00
2024-03-26T10:41:56.240Z,20928.00
2024-03-26T10:42:55.238Z,22848.00
2024-03-26T10:43:55.213Z,23520.00
2024-03-26T10:44:55.270Z,23136.00
2024-03-26T10:46:03.406Z,21760.00
2024-03-26T10:46:56.206Z,20640.00
2024-03-26T10:47:55.193Z,20608.00
2024-03-26T10:49:01.258Z,20672.00
2024-03-26T10:49:56.171Z,21760.00
2024-03-26T10:50:55.138Z,22752.00
2024-03-26T10:51:55.138Z,24000.00
2024-03-26T10:52:55.134Z,24768.00
2024-03-26T10:53:55.132Z,26944.00
2024-03-26T10:54:55.113Z,29184.00
2024-03-26T10:55:55.107Z,33600.00
2024-03-26T10:56:55.099Z,35776.00
2024-03-26T10:57:55.088Z,34816.00
2024-03-26T10:58:55.087Z,34240.00
2024-03-26T10:59:55.051Z,33344.00
2024-03-26T11:00:55.111Z,32000.00
2024-03-26T11:01:55.065Z,28032.00
2024-03-26T11:02:55.043Z,26624.00
2024-03-26T11:03:55.016Z,25088.00
2024-03-26T11:04:55.002Z,24064.00
2024-03-26T11:05:54.992Z,25824.00
2024-03-26T11:06:54.973Z,29088.00
2024-03-26T11:07:54.969Z,28704.00
2024-03-26T11:08:54.984Z,23840.00
2024-03-26T11:09:54.977Z,26688.00
2024-03-26T11:10:56.043Z,26688.00
2024-03-26T11:11:54.922Z,27680.00
2024-03-26T11:12:54.934Z,28416.00
2024-03-26T11:13:54.904Z,27584.00
2024-03-26T11:14:54.911Z,29824.00
2024-03-26T11:15:54.906Z,30016.00
2024-03-26T11:16:54.883Z,29664.00
2024-03-26T11:17:54.834Z,31200.00
2024-03-26T11:18:54.846Z,28512.00
2024-03-26T11:19:54.838Z,23520.00
2024-03-26T11:20:54.836Z,22272.00
2024-03-26T11:21:54.828Z,22464.00
2024-03-26T11:22:54.811Z,23328.00
2024-03-26T11:23:54.791Z,25408.00
2024-03-26T11:24:54.757Z,23808.00
2024-03-26T11:25:54.758Z,22272.00
2024-03-26T11:26:54.743Z,21248.00
2024-03-26T11:27:54.759Z,20352.00
2024-03-26T11:28:54.754Z,20000.00
2024-03-26T11:29:54.722Z,20192.00
2024-03-26T11:30:54.696Z,20576.00
2024-03-26T11:31:54.751Z,19040.00
2024-03-26T11:32:54.688Z,17920.00
2024-03-26T11:33:54.704Z,16640.00
2024-03-26T11:34:54.650Z,15756.00
2024-03-26T11:35:54.644Z,15532.00
2024-03-26T11:36:54.639Z,15592.00
2024-03-26T11:37:54.853Z,16096.00
2024-03-26T11:38:54.645Z,16416.00
2024-03-26T11:39:54.602Z,16672.00
2024-03-26T11:40:54.621Z,16736.00
2024-03-26T11:41:54.592Z,16800.00
2024-03-26T11:42:54.636Z,16992.00
2024-03-26T11:43:54.560Z,17312.00
2024-03-26T11:44:54.540Z,17952.00
2024-03-26T11:45:54.614Z,17888.00
2024-03-26T11:46:54.535Z,17664.00
2024-03-26T11:47:54.574Z,17216.00
2024-03-26T11:48:54.517Z,16864.00
2024-03-26T11:49:54.463Z,16608.00
2024-03-26T11:50:55.501Z,16256.00
2024-03-26T11:51:54.505Z,15764.00
2024-03-26T11:52:54.435Z,15500.00
2024-03-26T11:53:54.457Z,15304.00
2024-03-26T11:54:54.434Z,15180.00
2024-03-26T11:55:54.416Z,15264.00
2024-03-26T11:56:55.404Z,15664.00
2024-03-26T11:57:54.411Z,16416.00
2024-03-26T11:58:54.395Z,17184.00
2024-03-26T11:59:54.404Z,17888.00
2024-03-26T12:00:54.392Z,18592.00
2024-03-26T12:01:54.349Z,19136.00
2024-03-26T12:02:54.315Z,19584.00
2024-03-26T12:03:54.384Z,19904.00
2024-03-26T12:04:54.324Z,20224.00
2024-03-26T12:05:54.295Z,20576.00
2024-03-26T12:06:54.332Z,20832.00
2024-03-26T12:07:54.290Z,21152.00
2024-03-26T12:08:54.290Z,21408.00
2024-03-26T12:09:54.240Z,21920.00
2024-03-26T12:10:54.283Z,22752.00
2024-03-26T12:11:54.206Z,24064.00
2024-03-26T12:12:54.264Z,25728.00
2024-03-26T12:13:54.222Z,26880.00
2024-03-26T12:14:54.225Z,27616.00
2024-03-26T12:15:54.178Z,28160.00
2024-03-26T12:16:54.248Z,28800.00
2024-03-26T12:17:54.188Z,28480.00
2024-03-26T12:18:54.142Z,28224.00
2024-03-26T12:19:54.158Z,28128.00
2024-03-26T12:20:54.099Z,30240.00
2024-03-26T12:21:54.126Z,27744.00